Time;durP1;ratioP1;P1;durP2;ratioP2;P2;SDS_P1;SDS_P2;PMS_P1;PMS_P2;Temp;Humidity;BMP_temperature;BMP_pressure;BME280_temperature;BME280_humidity;BME280_pressure;Samples;Min_cycle;Max_cycle;Signal;HPM_P1;HPM_P2
2022/03/20 00:01:10;;;;;;;2.28;0.10;;;6.10;99.90;;;;;;5091579;28;20110;-73
2022/03/20 00:03:36;;;;;;;2.53;0.20;;;6.10;99.90;;;;;;5092925;28;20525;-73
2022/03/20 00:06:01;;;;;;;5.55;1.20;;;6.10;99.90;;;;;;5093128;28;20016;-73
2022/03/20 00:08:27;;;;;;;1.50;0.30;;;6.00;99.90;;;;;;5091347;28;20036;-73
2022/03/20 00:10:56;;;;;;;1.77;0.10;;;6.00;99.90;;;;;;5094866;28;20377;-73
2022/03/20 00:13:22;;;;;;;;;;;6.00;99.90;;;;;;5097157;28;20077;-74
2022/03/20 00:15:50;;;;;;;4.57;0.30;;;6.00;99.90;;;;;;5096570;28;20033;-73
2022/03/20 00:18:17;;;;;;;4.95;0.63;;;6.00;99.90;;;;;;5096365;28;20043;-74
2022/03/20 00:20:47;;;;;;;5.47;0.75;;;5.90;99.90;;;;;;5094876;28;20013;-73
2022/03/20 00:23:13;;;;;;;1.27;0.10;;;5.90;99.90;;;;;;5096258;28;20024;-74
2022/03/20 00:25:42;;;;;;;1.98;0.55;;;5.90;99.90;;;;;;5096104;28;20047;-74
2022/03/20 00:28:09;;;;;;;3.20;0.40;;;5.90;99.90;;;;;;5096080;28;20418;-74
2022/03/20 00:30:35;;;;;;;3.00;0.40;;;5.90;99.90;;;;;;5096513;28;20028;-74
2022/03/20 00:33:01;;;;;;;2.55;0.60;;;5.90;99.90;;;;;;5095993;28;20466;-74
2022/03/20 00:35:28;;;;;;;2.70;0.55;;;5.80;99.90;;;;;;5096512;28;20024;-74
2022/03/20 00:37:54;;;;;;;3.83;0.40;;;5.70;99.90;;;;;;5096019;28;20020;-74
2022/03/20 00:40:22;;;;;;;3.45;0.55;;;5.70;99.90;;;;;;5095853;28;20055;-74
2022/03/20 00:42:48;;;;;;;2.67;0.50;;;5.60;99.90;;;;;;5095736;28;20074;-74
2022/03/20 00:45:14;;;;;;;8.93;1.38;;;5.60;99.90;;;;;;5094496;28;20016;-74
2022/03/20 00:47:39;;;;;;;5.55;1.25;;;5.60;99.90;;;;;;5095746;28;20484;-74
2022/03/20 00:50:05;;;;;;;3.90;0.60;;;5.60;99.90;;;;;;5095541;28;20032;-74
2022/03/20 00:52:32;;;;;;;4.20;1.17;;;5.60;99.90;;;;;;5095570;28;20393;-74
2022/03/20 00:55:01;;;;;;;6.00;1.55;;;5.60;99.90;;;;;;5094253;28;20473;-74
2022/03/20 00:57:26;;;;;;;3.50;1.40;;;5.50;99.90;;;;;;5095593;28;20031;-73
2022/03/20 00:59:52;;;;;;;7.85;1.20;;;5.50;99.90;;;;;;5093973;28;20020;-73
2022/03/20 01:02:18;;;;;;;9.98;1.15;;;5.50;99.90;;;;;;5095429;28;20594;-73
2022/03/20 01:04:44;;;;;;;4.57;1.65;;;5.50;99.90;;;;;;5094056;28;20025;-73
2022/03/20 01:07:10;;;;;;;4.30;1.33;;;5.40;99.90;;;;;;5094017;28;20545;-73
2022/03/20 01:09:36;;;;;;;6.43;1.98;;;5.40;99.90;;;;;;5095043;28;20036;-73
2022/03/20 01:12:02;;;;;;;6.95;2.15;;;5.40;99.90;;;;;;5093926;28;20047;-73
2022/03/20 01:14:28;;;;;;;5.18;2.22;;;5.40;99.90;;;;;;5095077;28;20022;-73
2022/03/20 01:16:54;;;;;;;4.80;1.70;;;5.40;99.90;;;;;;5095111;28;20114;-74
2022/03/20 01:19:24;;;;;;;5.18;1.90;;;5.30;99.90;;;;;;5094943;28;20020;-73
2022/03/20 01:21:51;;;;;;;7.13;1.98;;;5.30;99.90;;;;;;5094116;28;20473;-73
2022/03/20 01:24:16;;;;;;;3.97;1.58;;;5.30;99.90;;;;;;5094934;28;20048;-74
2022/03/20 01:26:42;;;;;;;6.68;1.90;;;5.30;99.90;;;;;;5095115;28;20027;-75
2022/03/20 01:29:07;;;;;;;4.38;2.13;;;5.20;99.90;;;;;;5093596;28;20024;-75
2022/03/20 01:31:34;;;;;;;7.65;2.17;;;5.20;99.90;;;;;;5095034;28;20032;-75
2022/03/20 01:34:00;;;;;;;6.78;2.63;;;5.20;99.90;;;;;;5095066;28;20508;-74
2022/03/20 01:36:26;;;;;;;6.22;2.97;;;5.20;99.90;;;;;;5093472;28;20032;-74
2022/03/20 01:38:53;;;;;;;5.90;2.05;;;5.20;99.90;;;;;;5094355;28;20116;-75
2022/03/20 01:41:18;;;;;;;8.70;2.05;;;5.10;99.90;;;;;;5094566;28;20120;-74
2022/03/20 01:43:56;;;;;;;8.18;3.13;;;5.10;99.90;;;;;;5094652;28;20048;-75
2022/03/20 01:46:22;;;;;;;7.22;2.45;;;5.10;99.90;;;;;;5094772;28;20507;-75
2022/03/20 01:48:49;;;;;;;7.07;2.15;;;5.10;99.90;;;;;;5094913;28;20358;-74
2022/03/20 01:51:15;;;;;;;11.85;3.45;;;5.10;99.90;;;;;;5094393;28;20020;-75
2022/03/20 01:53:44;;;;;;;7.68;3.25;;;5.00;99.90;;;;;;5094408;28;20097;-74
2022/03/20 01:56:09;;;;;;;;;;;5.00;99.90;;;;;;5094747;28;20024;-74
2022/03/20 01:58:35;;;;;;;7.28;2.85;;;4.90;99.90;;;;;;5094117;28;19908;-74
2022/03/20 02:01:02;;;;;;;10.10;3.25;;;4.90;99.90;;;;;;5094296;28;20063;-74
2022/03/20 02:03:29;;;;;;;4.93;1.92;;;4.90;99.90;;;;;;5094550;28;20088;-74
2022/03/20 02:05:55;;;;;;;6.03;2.50;;;4.80;99.90;;;;;;5094716;28;20009;-74
2022/03/20 02:08:25;;;;;;;7.05;3.08;;;4.80;99.90;;;;;;5094439;28;20059;-74
2022/03/20 02:10:52;;;;;;;7.18;2.80;;;4.70;99.90;;;;;;5094107;28;20051;-74
2022/03/20 02:13:23;;;;;;;7.43;3.10;;;4.70;99.90;;;;;;5094003;28;20032;-74
2022/03/20 02:15:50;;;;;;;8.18;2.40;;;4.60;99.90;;;;;;5094628;28;20012;-74
2022/03/20 02:18:17;;;;;;;5.63;2.53;;;4.60;99.90;;;;;;5093877;28;20074;-74
2022/03/20 02:20:49;;;;;;;10.70;3.42;;;4.50;99.90;;;;;;5093785;28;20031;-74
2022/03/20 02:23:15;;;;;;;7.80;2.55;;;4.40;99.90;;;;;;5094186;28;20024;-75
2022/03/20 02:25:49;;;;;;;13.65;3.10;;;4.40;99.90;;;;;;5093811;28;20020;-75
2022/03/20 02:28:15;;;;;;;5.68;2.42;;;4.50;99.90;;;;;;5093701;28;20497;-74
2022/03/20 02:30:41;;;;;;;5.72;2.63;;;4.40;99.90;;;;;;5093789;28;20020;-75
2022/03/20 02:33:07;;;;;;;6.45;2.33;;;4.40;99.90;;;;;;5093522;28;20482;-75
2022/03/20 02:35:33;;;;;;;7.30;2.67;;;4.30;99.90;;;;;;5092392;28;20023;-74
2022/03/20 02:37:59;;;;;;;6.60;2.70;;;4.40;99.90;;;;;;5092332;28;20120;-75
2022/03/20 02:40:24;;;;;;;6.00;2.10;;;4.40;99.90;;;;;;5093548;28;20065;-74
2022/03/20 02:42:53;;;;;;;7.53;2.53;;;4.30;99.90;;;;;;5093515;28;20054;-74
2022/03/20 02:45:21;;;;;;;7.53;2.00;;;4.30;99.90;;;;;;5094122;28;20039;-75
2022/03/20 02:47:48;;;;;;;9.43;3.03;;;4.30;99.90;;;;;;5092260;28;20112;-75
2022/03/20 02:50:22;;;;;;;10.18;2.05;;;4.30;99.90;;;;;;5093491;28;20024;-75
2022/03/20 02:52:49;;;;;;;7.43;1.80;;;4.30;99.90;;;;;;5093498;28;20107;-75
2022/03/20 02:55:20;;;;;;;7.43;2.60;;;4.30;99.90;;;;;;5093426;28;20020;-75
2022/03/20 02:57:47;;;;;;;8.55;2.53;;;4.30;99.90;;;;;;5093858;28;20032;-75
2022/03/20 03:00:14;;;;;;;6.22;2.15;;;4.30;99.90;;;;;;5092047;28;20489;-75
2022/03/20 03:02:45;;;;;;;8.55;2.13;;;4.30;99.90;;;;;;5093313;28;20020;-75
2022/03/20 03:05:15;;;;;;;6.45;1.70;;;4.30;99.90;;;;;;5093610;28;20023;-75
2022/03/20 03:13:13;;;;;;;8.73;2.22;;;4.30;99.90;;;;;;5094170;28;20508;-74
2022/03/20 03:15:38;;;;;;;5.55;2.22;;;4.30;99.90;;;;;;5093281;28;20052;-74
2022/03/20 03:18:04;;;;;;;3.65;1.85;;;4.30;99.90;;;;;;5091906;28;20504;-74
2022/03/20 03:20:31;;;;;;;8.10;3.00;;;4.30;99.90;;;;;;5093107;28;20469;-74
2022/03/20 03:22:57;;;;;;;6.47;2.80;;;4.30;99.90;;;;;;5093156;28;20055;-74
2022/03/20 03:25:23;;;;;;;5.50;2.25;;;4.30;99.90;;;;;;5091926;28;20413;-74
2022/03/20 03:27:50;;;;;;;10.30;2.90;;;4.30;99.90;;;;;;5093398;28;20103;-74
2022/03/20 03:30:15;;;;;;;5.93;2.35;;;4.30;99.90;;;;;;5093144;28;20028;-75
2022/03/20 03:32:42;;;;;;;7.30;2.63;;;4.30;99.90;;;;;;5093422;28;20077;-75
2022/03/20 03:37:53;;;;;;;10.80;3.50;;;4.30;99.90;;;;;;5093350;28;20519;-75
2022/03/20 03:40:19;;;;;;;10.25;3.28;;;4.30;99.90;;;;;;5091689;28;20020;-75
2022/03/20 03:42:44;;;;;;;6.80;2.65;;;4.30;99.90;;;;;;5093039;28;20055;-75
2022/03/20 03:45:10;;;;;;;8.75;2.55;;;4.30;99.90;;;;;;5093923;28;20099;-75
2022/03/20 03:47:36;;;;;;;8.38;3.58;;;4.20;99.90;;;;;;5095654;28;20111;-75
2022/03/20 03:50:02;;;;;;;11.73;4.20;;;4.20;99.90;;;;;;5096769;28;20020;-75
2022/03/20 03:52:27;;;;;;;6.47;3.00;;;4.20;99.90;;;;;;5096990;28;20039;-75
2022/03/20 03:54:53;;;;;;;8.50;2.63;;;4.20;99.90;;;;;;5096813;28;20024;-75
2022/03/20 03:57:19;;;;;;;11.05;3.88;;;4.20;99.90;;;;;;5097264;28;20024;-75
2022/03/20 03:59:45;;;;;;;8.27;3.00;;;4.20;99.90;;;;;;5095223;28;20477;-75
2022/03/20 04:02:11;;;;;;;7.13;2.97;;;4.10;99.90;;;;;;5096557;28;20092;-75
2022/03/20 04:04:38;;;;;;;8.77;3.20;;;4.10;99.90;;;;;;5095290;28;20052;-75
2022/03/20 04:07:04;;;;;;;14.65;3.53;;;4.10;99.90;;;;;;5095630;28;20034;-75
2022/03/20 04:09:29;;;;;;;9.75;3.60;;;4.10;99.90;;;;;;5096352;28;20078;-74
2022/03/20 04:11:55;;;;;;;10.50;3.25;;;4.10;99.90;;;;;;5096637;28;20482;-74
2022/03/20 04:14:21;;;;;;;12.45;3.47;;;4.00;99.90;;;;;;5096376;28;20393;-75
2022/03/20 04:16:48;;;;;;;9.05;3.38;;;4.10;99.90;;;;;;5096328;28;20051;-75
2022/03/20 04:19:13;;;;;;;10.93;3.75;;;4.10;99.90;;;;;;5094880;28;20538;-75
2022/03/20 04:21:39;;;;;;;10.23;3.85;;;4.00;99.90;;;;;;5096507;28;20024;-74
2022/03/20 04:24:05;;;;;;;9.73;3.47;;;4.00;99.90;;;;;;5094868;28;20077;-74
2022/03/20 04:26:33;;;;;;;9.35;3.40;;;4.00;99.90;;;;;;5096636;28;20390;-75
2022/03/20 04:28:58;;;;;;;10.88;4.05;;;4.00;99.90;;;;;;5096029;28;20076;-75
2022/03/20 04:31:24;;;;;;;9.45;3.20;;;4.00;99.90;;;;;;5096334;28;20111;-74
2022/03/20 04:33:51;;;;;;;11.60;3.53;;;4.00;99.90;;;;;;5094751;28;20525;-75
2022/03/20 04:36:21;;;;;;;8.55;3.58;;;3.90;99.90;;;;;;5095808;28;20027;-75
2022/03/20 04:38:47;;;;;;;9.23;4.05;;;3.90;99.90;;;;;;5094996;28;20115;-75
2022/03/20 04:41:13;;;;;;;8.27;3.15;;;3.90;99.90;;;;;;5094562;28;20111;-75
2022/03/20 04:43:38;;;;;;;10.27;3.53;;;3.90;99.90;;;;;;5096203;28;20024;-74
2022/03/20 04:46:04;;;;;;;9.25;3.28;;;3.80;99.90;;;;;;5096087;28;20024;-74
2022/03/20 04:59:26;;;;;;;11.55;4.38;;;3.80;99.90;;;;;;5095540;28;20245;-74
2022/03/20 05:01:51;;;;;;;11.65;4.18;;;3.70;99.90;;;;;;5094198;28;20025;-76
2022/03/20 05:04:17;;;;;;;11.60;4.20;;;3.70;99.90;;;;;;5095361;28;20020;-73
2022/03/20 05:06:43;;;;;;;8.85;4.35;;;3.70;99.90;;;;;;5095684;28;20454;-75
2022/03/20 05:14:38;;;;;;;10.77;4.53;;;3.70;99.90;;;;;;5096102;28;20055;-75
2022/03/20 05:17:05;;;;;;;12.07;4.50;;;3.70;99.90;;;;;;5095347;28;20028;-75
2022/03/20 05:19:36;;;;;;;11.60;4.43;;;3.70;99.90;;;;;;5094875;28;20474;-75
2022/03/20 05:22:06;;;;;;;12.52;5.20;;;3.70;99.90;;;;;;5095245;28;20111;-75
2022/03/20 05:24:34;;;;;;;18.33;4.78;;;3.70;99.90;;;;;;5095203;28;20023;-75
2022/03/20 05:26:59;;;;;;;15.70;4.85;;;3.70;99.90;;;;;;5093724;28;20482;-75
2022/03/20 05:29:25;;;;;;;12.77;4.10;;;3.70;99.90;;;;;;5093582;28;20030;-75
2022/03/20 05:31:53;;;;;;;11.40;5.03;;;3.70;99.90;;;;;;5093657;28;20026;-75
2022/03/20 05:34:19;;;;;;;15.95;4.93;;;3.80;99.90;;;;;;5093627;28;20027;-76
2022/03/20 05:36:45;;;;;;;9.77;4.28;;;3.80;99.90;;;;;;5094743;28;20024;-75
2022/03/20 05:39:12;;;;;;;18.17;5.88;;;3.80;99.90;;;;;;5093572;28;20028;-75
2022/03/20 05:41:46;;;;;;;10.77;4.50;;;3.90;99.90;;;;;;5094943;28;20032;-75
2022/03/20 05:44:12;;;;;;;16.65;6.05;;;3.90;99.90;;;;;;5093546;28;20469;-75
2022/03/20 05:46:38;;;;;;;12.35;5.43;;;3.90;99.90;;;;;;5094612;28;20020;-75
2022/03/20 05:49:05;;;;;;;12.02;4.68;;;3.90;99.90;;;;;;5093272;28;20393;-75
2022/03/20 05:51:31;;;;;;;14.45;4.78;;;3.90;99.90;;;;;;5094594;28;20077;-76
2022/03/20 05:53:57;;;;;;;11.90;4.22;;;4.00;99.90;;;;;;5094977;28;20104;-75
2022/03/20 05:59:08;;;;;;;13.60;4.35;;;4.00;99.90;;;;;;5094451;28;20043;-76
2022/03/20 06:01:33;;;;;;;13.90;4.55;;;4.00;99.90;;;;;;5093206;28;20069;-77
2022/03/20 06:04:00;;;;;;;13.63;4.57;;;4.10;99.90;;;;;;5093303;28;20078;-76
2022/03/20 06:06:26;;;;;;;13.05;4.97;;;4.10;99.90;;;;;;5094586;28;20084;-77
2022/03/20 06:08:52;;;;;;;13.93;4.88;;;4.10;99.90;;;;;;5092428;28;20038;-77
2022/03/20 06:11:17;;;;;;;12.35;4.25;;;4.10;99.90;;;;;;5094171;28;20107;-73
2022/03/20 06:13:45;;;;;;;13.23;4.93;;;4.20;99.90;;;;;;5094128;28;20397;-73
2022/03/20 06:16:12;;;;;;;14.65;5.18;;;4.20;99.90;;;;;;5094353;28;20077;-72
2022/03/20 06:18:42;;;;;;;13.55;4.95;;;4.20;99.90;;;;;;5094163;28;20397;-72
2022/03/20 06:21:09;;;;;;;11.95;5.30;;;4.30;99.90;;;;;;5094268;28;20489;-72
2022/03/20 06:23:35;;;;;;;15.05;4.68;;;4.30;99.90;;;;;;5094200;28;20024;-73
2022/03/20 06:26:00;;;;;;;16.73;5.97;;;4.30;99.90;;;;;;5094518;28;20027;-72
2022/03/20 06:28:26;;;;;;;15.25;5.18;;;4.30;99.90;;;;;;5093912;28;20028;-73
2022/03/20 06:30:52;;;;;;;13.70;5.00;;;4.30;99.90;;;;;;5094084;28;20051;-73
2022/03/20 06:33:18;;;;;;;14.45;5.32;;;4.30;99.90;;;;;;5093735;28;20108;-73
2022/03/20 06:35:44;;;;;;;14.02;4.38;;;4.30;99.90;;;;;;5093713;28;20103;-73
2022/03/20 06:38:10;;;;;;;15.07;5.15;;;4.30;99.90;;;;;;5093651;28;20024;-73
2022/03/20 06:40:35;;;;;;;12.95;5.13;;;4.30;99.90;;;;;;5093559;28;20404;-73
2022/03/20 06:43:01;;;;;;;12.45;5.38;;;4.30;99.90;;;;;;5093532;28;20031;-73
2022/03/20 06:45:27;;;;;;;14.60;5.22;;;4.40;99.90;;;;;;5094090;28;20021;-73
2022/03/20 06:47:52;;;;;;;13.15;5.40;;;4.30;99.90;;;;;;5093462;28;20016;-73
2022/03/20 06:50:18;;;;;;;12.05;5.13;;;4.40;99.90;;;;;;5093750;28;20059;-73
2022/03/20 06:52:43;;;;;;;16.40;5.90;;;4.40;99.90;;;;;;5093664;28;20115;-73
2022/03/20 06:55:13;;;;;;;14.27;5.82;;;4.40;99.90;;;;;;5093474;28;20025;-73
2022/03/20 06:57:43;;;;;;;14.10;5.70;;;4.40;99.90;;;;;;5093948;28;20024;-74
2022/03/20 07:00:09;;;;;;;14.93;5.47;;;4.50;99.90;;;;;;5093901;28;20416;-73
2022/03/20 07:02:35;;;;;;;11.15;5.40;;;4.50;99.90;;;;;;5092040;28;20020;-73
2022/03/20 07:05:01;;;;;;;14.57;5.38;;;4.50;99.90;;;;;;5092102;28;20028;-73
2022/03/20 07:07:26;;;;;;;15.48;5.35;;;4.60;99.90;;;;;;5093251;28;20099;-73
2022/03/20 07:09:52;;;;;;;15.13;5.68;;;4.70;99.90;;;;;;5093099;28;20068;-74
2022/03/20 07:12:18;;;;;;;14.23;5.80;;;4.70;99.90;;;;;;5091949;28;20079;-74
2022/03/20 07:14:44;;;;;;;17.70;5.65;;;4.80;99.90;;;;;;5093789;28;20056;-73
2022/03/20 07:17:16;;;;;;;13.77;5.50;;;4.90;99.90;;;;;;5093219;28;20028;-71
2022/03/20 07:19:43;;;;;;;13.75;6.05;;;5.00;99.90;;;;;;5091713;28;20035;-73
2022/03/20 07:22:11;;;;;;;14.60;5.15;;;5.10;99.90;;;;;;5097151;28;20061;-72
2022/03/20 07:24:39;;;;;;;20.67;6.15;;;5.20;99.90;;;;;;5097247;28;20052;-72
2022/03/20 07:29:49;;;;;;;20.17;6.50;;;5.30;99.90;;;;;;5097446;28;20388;-73
2022/03/20 07:32:15;;;;;;;11.20;4.75;;;5.30;99.90;;;;;;5097199;28;20032;-72
2022/03/20 07:34:44;;;;;;;17.50;5.85;;;5.30;99.90;;;;;;5097120;28;20073;-72
2022/03/20 07:37:09;;;;;;;18.00;6.75;;;5.30;99.90;;;;;;5097010;28;20051;-73
2022/03/20 07:39:36;;;;;;;17.20;7.18;;;5.40;99.90;;;;;;5096730;28;20067;-73
2022/03/20 07:42:02;;;;;;;12.68;5.85;;;5.40;99.90;;;;;;5095621;28;20016;-73
2022/03/20 07:44:31;;;;;;;20.80;6.20;;;5.50;99.10;;;;;;5095614;28;20027;-73
2022/03/20 07:46:57;;;;;;;16.05;6.95;;;5.50;99.20;;;;;;5096849;28;20015;-72
2022/03/20 07:49:23;;;;;;;13.80;5.93;;;5.60;97.50;;;;;;5097002;28;20499;-72
2022/03/20 07:51:48;;;;;;;17.65;6.07;;;5.60;97.90;;;;;;5096680;28;20028;-73
2022/03/20 07:54:15;;;;;;;19.27;6.50;;;5.60;97.10;;;;;;5096903;28;20385;-73
2022/03/20 07:56:41;;;;;;;18.15;6.40;;;5.60;97.00;;;;;;5096722;28;20024;-73
2022/03/20 07:59:07;;;;;;;16.98;6.03;;;5.60;96.60;;;;;;5096517;28;20031;-73
2022/03/20 08:01:33;;;;;;;16.75;5.75;;;5.60;96.60;;;;;;5096991;28;20473;-73
2022/03/20 08:04:03;;;;;;;14.13;6.03;;;5.70;96.40;;;;;;5096881;28;20109;-73
2022/03/20 08:06:29;;;;;;;17.23;6.75;;;5.70;96.10;;;;;;5095375;28;20051;-73
2022/03/20 08:08:59;;;;;;;18.52;5.95;;;5.70;96.40;;;;;;5096221;28;20028;-73
2022/03/20 08:11:26;;;;;;;14.68;5.63;;;5.70;95.50;;;;;;5096462;28;20047;-73
2022/03/20 08:13:52;;;;;;;19.20;7.22;;;5.70;95.00;;;;;;5094987;28;20504;-72
2022/03/20 08:16:20;;;;;;;21.98;7.03;;;5.80;94.70;;;;;;5096503;28;20020;-72
2022/03/20 08:18:45;;;;;;;15.03;6.77;;;5.90;93.70;;;;;;5096569;28;20481;-73
2022/03/20 08:21:14;;;;;;;17.75;7.18;;;6.00;92.80;;;;;;5096588;28;20265;-73
2022/03/20 08:23:41;;;;;;;16.10;6.68;;;6.20;91.80;;;;;;5096127;28;20062;-73
2022/03/20 08:26:08;;;;;;;18.70;7.00;;;6.40;90.90;;;;;;5096228;28;20485;-73
2022/03/20 08:28:38;;;;;;;19.98;7.32;;;6.50;90.20;;;;;;5096535;28;20473;-73
2022/03/20 08:31:08;;;;;;;15.68;6.72;;;6.50;90.20;;;;;;5095851;28;20482;-73
2022/03/20 08:33:34;;;;;;;17.60;6.35;;;6.70;86.60;;;;;;5096239;28;20540;-73
2022/03/20 08:36:00;;;;;;;21.08;7.40;;;6.80;80.50;;;;;;5095910;28;20103;-73
2022/03/20 08:38:26;;;;;;;18.63;7.00;;;6.90;81.00;;;;;;5096071;28;20118;-73
2022/03/20 08:40:51;;;;;;;16.45;7.13;;;6.90;81.40;;;;;;5095842;28;20426;-72
2022/03/20 08:43:17;;;;;;;15.65;6.40;;;6.90;79.60;;;;;;5096046;28;20043;-73
2022/03/20 08:45:44;;;;;;;15.50;7.10;;;6.90;80.60;;;;;;5094566;28;20477;-73
2022/03/20 08:48:10;;;;;;;15.57;7.60;;;6.90;80.00;;;;;;5095666;28;20019;-73
2022/03/20 08:50:36;;;;;;;15.45;6.80;;;6.80;80.90;;;;;;5095675;28;20512;-73
2022/03/20 08:53:02;;;;;;;23.30;8.52;;;6.70;78.70;;;;;;5094356;28;20020;-72
2022/03/20 08:55:28;;;;;;;15.63;7.05;;;6.70;78.90;;;;;;5094432;28;20107;-74
2022/03/20 08:57:54;;;;;;;19.70;7.22;;;6.70;79.40;;;;;;5095466;28;20034;-74
2022/03/20 09:00:22;;;;;;;17.92;6.97;;;6.70;79.10;;;;;;5095924;28;20104;-73
2022/03/20 09:02:49;;;;;;;16.83;6.45;;;6.70;77.70;;;;;;5095471;28;20020;-73
2022/03/20 09:05:17;;;;;;;17.17;7.95;;;6.80;78.30;;;;;;5095591;28;20509;-73
2022/03/20 09:07:48;;;;;;;16.58;7.07;;;6.90;77.80;;;;;;5095345;28;20073;-73
2022/03/20 09:10:15;;;;;;;19.60;7.28;;;6.90;75.90;;;;;;5095117;28;20035;-73
2022/03/20 09:12:43;;;;;;;21.02;7.28;;;7.00;77.20;;;;;;5094064;28;20016;-73
2022/03/20 09:15:12;;;;;;;18.13;7.70;;;7.00;76.50;;;;;;5094456;28;20107;-74
2022/03/20 09:20:31;;;;;;;18.73;7.18;;;6.90;76.80;;;;;;5095807;28;20047;-72
2022/03/20 09:22:57;;;;;;;19.83;8.38;;;6.90;77.50;;;;;;5095188;28;20028;-72
2022/03/20 09:25:23;;;;;;;18.88;7.82;;;6.90;77.40;;;;;;5095058;28;20024;-72
2022/03/20 09:27:51;;;;;;;19.80;8.30;;;6.80;77.50;;;;;;5094985;28;20388;-73
2022/03/20 09:30:18;;;;;;;17.15;6.93;;;6.80;78.20;;;;;;5095160;28;20031;-73
2022/03/20 09:32:44;;;;;;;17.40;7.45;;;6.80;77.60;;;;;;5095454;28;20081;-72
2022/03/20 09:35:11;;;;;;;17.75;7.30;;;6.90;76.70;;;;;;5095092;28;20031;-73
2022/03/20 09:37:36;;;;;;;18.40;7.63;;;6.90;77.10;;;;;;5094832;28;20381;-73
2022/03/20 09:40:04;;;;;;;21.20;7.90;;;6.90;77.00;;;;;;5094902;28;20039;-73
2022/03/20 09:42:29;;;;;;;18.60;8.07;;;6.90;76.10;;;;;;5092878;28;20023;-73
2022/03/20 09:44:55;;;;;;;18.15;7.85;;;6.80;76.00;;;;;;5094623;28;20024;-72
2022/03/20 09:47:23;;;;;;;19.25;7.15;;;6.80;76.70;;;;;;5094575;28;20095;-72
2022/03/20 09:49:49;;;;;;;18.17;7.37;;;6.80;76.30;;;;;;5094480;28;20024;-73
2022/03/20 09:52:19;;;;;;;19.13;8.25;;;6.70;76.00;;;;;;5093207;28;20057;-73
2022/03/20 09:54:45;;;;;;;20.23;7.72;;;6.70;76.80;;;;;;5094728;28;20028;-73
2022/03/20 09:57:11;;;;;;;29.48;10.75;;;6.70;76.50;;;;;;5094383;28;20103;-73
2022/03/20 09:59:39;;;;;;;17.45;8.15;;;6.80;76.40;;;;;;5094329;28;20096;-73
2022/03/20 10:02:07;;;;;;;22.95;8.75;;;6.90;77.30;;;;;;5093262;28;20024;-73
2022/03/20 10:04:50;;;;;;;16.98;7.90;;;7.00;77.30;;;;;;5094370;28;20031;-72
2022/03/20 10:07:28;;;;;;;23.02;8.68;;;7.10;77.00;;;;;;5095149;28;20024;-72
2022/03/20 10:10:13;;;;;;;18.42;8.05;;;7.30;74.20;;;;;;5092761;28;20028;-72
2022/03/20 10:12:45;;;;;;;18.38;7.75;;;7.30;75.00;;;;;;5094269;28;20028;-72
2022/03/20 10:15:30;;;;;;;16.88;8.07;;;7.50;73.70;;;;;;5094534;28;20044;-72
2022/03/20 10:18:08;;;;;;;17.35;8.18;;;7.60;72.30;;;;;;5092744;28;20028;-72
2022/03/20 10:20:46;;;;;;;21.98;7.97;;;8.00;72.10;;;;;;5094217;28;20028;-73
2022/03/20 10:23:32;;;;;;;20.30;8.45;;;8.50;70.70;;;;;;5092807;28;20028;-73
2022/03/20 10:26:00;;;;;;;20.75;8.18;;;8.90;67.50;;;;;;5093983;28;20023;-72
2022/03/20 10:28:37;;;;;;;20.98;7.63;;;9.10;65.90;;;;;;5093915;28;20089;-72
2022/03/20 10:31:06;;;;;;;18.70;9.15;;;9.30;64.10;;;;;;5093928;28;20039;-73
2022/03/20 10:33:35;;;;;;;22.98;9.13;;;9.40;64.40;;;;;;5094182;28;20023;-74
2022/03/20 10:36:20;;;;;;;20.60;9.30;;;9.50;63.40;;;;;;5092545;28;20020;-74
2022/03/20 10:38:47;;;;;;;19.95;8.13;;;9.50;61.50;;;;;;5093802;28;20377;-76
2022/03/20 10:41:20;;;;;;;16.85;7.95;;;9.40;61.70;;;;;;5093633;28;20020;-75
2022/03/20 10:43:46;;;;;;;20.05;8.90;;;9.30;62.00;;;;;;5092398;28;20031;-74
2022/03/20 10:46:19;;;;;;;17.35;7.80;;;9.20;61.50;;;;;;5093616;28;20021;-74
2022/03/20 10:48:48;;;;;;;20.45;8.35;;;9.00;61.30;;;;;;5093401;28;20104;-75
2022/03/20 10:51:14;;;;;;;24.05;9.00;;;8.80;61.70;;;;;;5094081;28;20076;-75
2022/03/20 10:54:00;;;;;;;23.30;8.90;;;8.60;63.10;;;;;;5092181;28;20363;-74
2022/03/20 10:56:25;;;;;;;20.67;8.90;;;8.40;64.20;;;;;;5093719;28;20393;-74
2022/03/20 10:58:51;;;;;;;19.40;8.50;;;8.20;64.30;;;;;;5091403;28;20016;-74
2022/03/20 11:01:17;;;;;;;20.45;9.40;;;8.10;65.00;;;;;;5089958;28;20024;-74
2022/03/20 11:03:44;;;;;;;20.30;8.93;;;8.00;65.40;;;;;;5090979;28;20396;-73
2022/03/20 11:06:13;;;;;;;19.30;8.52;;;7.90;65.40;;;;;;5093307;28;20020;-73
2022/03/20 11:08:39;;;;;;;22.45;9.27;;;7.80;65.50;;;;;;5093170;28;20024;-73
2022/03/20 11:11:10;;;;;;;19.92;8.57;;;7.70;67.20;;;;;;5093327;28;20038;-74
2022/03/20 11:13:40;;;;;;;19.30;8.65;;;7.60;67.50;;;;;;5092069;28;20073;-74
2022/03/20 11:16:07;;;;;;;24.55;8.73;;;7.60;67.50;;;;;;5093266;28;20047;-73
2022/03/20 11:18:35;;;;;;;20.08;7.90;;;7.60;67.80;;;;;;5093255;28;20407;-73
2022/03/20 11:21:03;;;;;;;21.17;10.23;;;7.60;68.50;;;;;;5093403;28;20020;-74
2022/03/20 11:23:30;;;;;;;21.88;9.13;;;7.70;69.80;;;;;;5093257;28;20012;-74
2022/03/20 11:25:57;;;;;;;22.63;9.68;;;7.80;69.70;;;;;;5091931;28;20032;-73
2022/03/20 11:28:23;;;;;;;20.63;9.15;;;7.90;70.20;;;;;;5093297;28;20024;-73
2022/03/20 11:30:50;;;;;;;24.40;10.93;;;8.00;71.20;;;;;;5093377;28;20024;-73
2022/03/20 11:33:20;;;;;;;20.48;9.82;;;7.90;74.10;;;;;;5093150;28;20102;-73
2022/03/20 11:35:46;;;;;;;24.38;9.82;;;7.80;78.10;;;;;;5093066;28;20073;-73
2022/03/20 11:38:14;;;;;;;24.15;10.32;;;7.80;79.90;;;;;;5093163;28;20028;-73
2022/03/20 11:40:41;;;;;;;24.67;10.20;;;7.70;80.10;;;;;;5093449;28;20024;-73
2022/03/20 11:43:16;;;;;;;29.63;10.95;;;7.90;81.30;;;;;;5092976;28;20039;-73
2022/03/20 11:45:41;;;;;;;28.65;10.65;;;8.00;80.50;;;;;;5093247;28;20024;-73
2022/03/20 11:48:16;;;;;;;25.35;10.77;;;8.00;78.10;;;;;;5093153;28;20545;-73
2022/03/20 11:50:44;;;;;;;23.83;10.40;;;8.10;77.90;;;;;;5093412;28;20036;-73
2022/03/20 11:53:11;;;;;;;26.73;10.80;;;8.20;77.80;;;;;;5093145;28;20607;-73
2022/03/20 11:55:57;;;;;;;25.73;10.40;;;8.40;76.60;;;;;;5093007;28;20112;-73
2022/03/20 11:58:26;;;;;;;24.00;11.05;;;8.50;75.90;;;;;;5093111;28;20040;-73
2022/03/20 12:01:04;;;;;;;24.83;10.48;;;8.70;75.40;;;;;;5093010;28;20059;-73
2022/03/20 12:03:55;;;;;;;25.55;10.60;;;8.70;72.90;;;;;;5091797;28;20012;-73
2022/03/20 12:06:26;;;;;;;22.20;9.95;;;8.70;73.40;;;;;;5092595;28;20071;-73
2022/03/20 12:09:02;;;;;;;27.70;10.82;;;8.70;74.40;;;;;;5095118;28;20032;-73
2022/03/20 12:11:52;;;;;;;25.38;10.38;;;8.80;74.40;;;;;;5096926;28;20065;-74
2022/03/20 12:14:29;;;;;;;23.35;9.75;;;8.80;72.50;;;;;;5097038;28;20113;-73
2022/03/20 12:16:58;;;;;;;24.45;10.70;;;8.80;72.80;;;;;;5096419;28;20132;-73
2022/03/20 12:19:41;;;;;;;26.08;10.95;;;8.90;73.00;;;;;;5096301;28;20111;-73
2022/03/20 12:22:14;;;;;;;28.23;11.52;;;9.00;72.30;;;;;;5096675;28;20358;-73
2022/03/20 12:24:51;;;;;;;26.13;10.73;;;8.90;72.50;;;;;;5096340;28;20020;-73
2022/03/20 12:27:22;;;;;;;22.63;10.52;;;9.20;73.20;;;;;;5096841;28;20378;-73
2022/03/20 12:29:57;;;;;;;25.05;11.10;;;9.30;73.20;;;;;;5096238;28;20115;-73
2022/03/20 12:32:25;;;;;;;24.52;11.02;;;9.50;75.00;;;;;;5095076;28;20433;-73
2022/03/20 12:34:56;;;;;;;23.55;11.10;;;9.60;72.40;;;;;;5096330;28;20504;-73
2022/03/20 12:37:28;;;;;;;24.65;10.90;;;9.80;73.50;;;;;;5096816;28;20034;-72
2022/03/20 12:39:55;;;;;;;24.05;11.65;;;9.80;70.90;;;;;;5096382;28;20533;-74
2022/03/20 12:42:22;;;;;;;26.30;10.93;;;9.80;71.90;;;;;;5094746;28;20030;-73
2022/03/20 12:44:49;;;;;;;23.20;11.32;;;9.80;72.40;;;;;;5095917;28;20069;-73
2022/03/20 12:47:19;;;;;;;23.35;10.70;;;9.90;72.50;;;;;;5095313;28;20411;-73
2022/03/20 12:49:47;;;;;;;26.65;10.98;;;9.90;73.90;;;;;;5095838;28;20035;-73
2022/03/20 12:52:13;;;;;;;23.95;11.23;;;9.90;73.10;;;;;;5094586;28;20028;-73
2022/03/20 12:54:39;;;;;;;28.05;11.65;;;10.00;75.80;;;;;;5095690;28;20028;-73
2022/03/20 12:57:04;;;;;;;27.38;11.82;;;10.00;76.90;;;;;;5095772;28;20113;-73
2022/03/20 12:59:30;;;;;;;32.25;12.27;;;9.90;78.60;;;;;;5095978;28;20031;-73
2022/03/20 13:01:57;;;;;;;27.52;12.43;;;9.80;85.90;;;;;;5096342;28;20052;-73
2022/03/20 13:04:23;;;;;;;25.58;11.65;;;9.70;85.40;;;;;;5094252;28;20016;-73
2022/03/20 13:06:50;;;;;;;27.58;12.68;;;9.70;84.80;;;;;;5095414;28;20107;-73
2022/03/20 13:09:16;;;;;;;26.50;11.93;;;9.70;85.60;;;;;;5095340;28;20055;-73
2022/03/20 13:11:51;;;;;;;27.13;12.90;;;9.90;83.20;;;;;;5094154;28;20032;-72
2022/03/20 13:14:17;;;;;;;28.95;12.50;;;10.00;82.60;;;;;;5094189;28;20081;-73
2022/03/20 13:16:55;;;;;;;29.73;12.73;;;10.10;81.10;;;;;;5095552;28;20052;-73
2022/03/20 13:19:29;;;;;;;28.77;12.98;;;10.00;78.30;;;;;;5094402;28;20024;-74
2022/03/20 13:21:55;;;;;;;25.90;12.30;;;10.10;79.50;;;;;;5095121;28;20020;-76
2022/03/20 13:24:36;;;;;;;28.85;11.90;;;10.10;77.00;;;;;;5093979;28;20016;-76